الصفحة الرئيسية
METAR-TAF:

METAR-TAF

مطار :

Tarawa, كيريباس

دائرة عرض: 01-21N, خط طول: 172-55E, ارتفاع: 2 متر

مراقبة الطقس الحالي

تاريخ ووقت الإصدار 30 دقيقة قبل الساعة 19:00UTC
ريح 4 عقدة من الشرق
درجة الحرارة 28°درجة مئوية
الرطوبة 79%
ضغط 1009 hPa
الرؤية 10 كم أو أكثر
غيوم متفرقة على ارتفاع 2000 قدم
غيوم مفككة على ارتفاع 30000 قدم

METAR: NGTA 161900Z 10004KT 9999 SCT020 BKN300 28/24 Q1009

زمن: 09:30 (19:30 UTC)

توقعات

تاريخ ووقت الإصدار 2ساعات و 20 دقيقة قبل الساعة 17:10UTC
التوقعات صالحة من16 الساعة 18 UTC إلى 17 الساعة 18 UTC
ريح 8 عقدة من الشرق/الجنوب الشرقي
الرؤية 10 كم أو أكثر
غيوم متفرقة على ارتفاع 2000 قدم

TAF: NGTA 161710Z 1618/1718 11008KT 9999 SCT020

أرصاد الطقس والتوقعات من أكثر من 4000 مطار (تقارير الطقس للمطار METAR والتنبؤ بالطقس بالمطارTAF).

المحطات المتاحة هي النقط الصفراء والحمراء على الخريطة.

حرك المؤشر فوق النقطة لمعرفة اسم المحطة.

ثم انقر لمعرفة أرصاد وتوقعات الطقس.

لتغيير الخارطة: اضغط على الأزرار الخضراء مع رمز الصليب الأسود للتكبير. على الزر الأخضر مع شرطة للتصغير، أو على الأسهم الخضراء للخرائط المجاورة.


METAR-TAF: